createdAt,value
2022-08-19T00:02:04.348Z,25.56
2022-08-19T00:04:36.096Z,25.38
2022-08-19T00:07:03.243Z,25.48
2022-08-19T00:09:32.344Z,25.38
2022-08-19T00:12:00.519Z,25.32
2022-08-19T00:14:28.892Z,25.21
2022-08-19T00:16:56.085Z,25.22
2022-08-19T00:19:24.323Z,25.18
2022-08-19T00:21:52.239Z,25.06
2022-08-19T00:24:19.751Z,24.95
2022-08-19T00:26:49.432Z,24.98
2022-08-19T00:29:19.954Z,25.05
2022-08-19T00:31:47.981Z,25.14
2022-08-19T00:34:18.121Z,25.07
2022-08-19T00:36:46.155Z,24.93
2022-08-19T00:39:15.344Z,24.82
2022-08-19T00:41:44.077Z,24.78
2022-08-19T00:44:17.352Z,24.82
2022-08-19T00:46:55.326Z,24.91
2022-08-19T00:49:31.445Z,24.92
2022-08-19T00:52:03.596Z,24.94
2022-08-19T00:54:31.581Z,24.90
2022-08-19T00:56:59.600Z,24.99
2022-08-19T01:00:00.326Z,24.99
2022-08-19T01:02:17.856Z,24.89
2022-08-19T01:04:45.672Z,24.79
2022-08-19T01:07:15.142Z,24.68
2022-08-19T01:09:47.699Z,24.41
2022-08-19T01:12:15.513Z,24.63
2022-08-19T01:14:44.655Z,24.78
2022-08-19T01:17:13.569Z,24.71
2022-08-19T01:19:44.809Z,24.66
2022-08-19T01:22:26.483Z,24.70
2022-08-19T01:24:57.932Z,24.75
2022-08-19T01:27:26.953Z,24.86
2022-08-19T01:29:57.192Z,24.86
2022-08-19T01:32:34.047Z,24.88
2022-08-19T01:35:02.869Z,24.80
2022-08-19T01:37:30.834Z,24.66
2022-08-19T01:39:59.458Z,24.50
2022-08-19T01:42:30.108Z,24.03
2022-08-19T01:44:57.955Z,23.69
2022-08-19T01:47:25.378Z,23.46
2022-08-19T01:49:53.054Z,23.28
2022-08-19T01:52:20.308Z,23.38
2022-08-19T01:54:47.602Z,23.40
2022-08-19T01:57:16.993Z,23.38
2022-08-19T01:59:46.364Z,23.45
2022-08-19T02:02:13.749Z,23.52
2022-08-19T02:04:41.206Z,23.53
2022-08-19T02:07:08.956Z,23.57
2022-08-19T02:09:36.510Z,23.74
2022-08-19T02:12:04.635Z,23.79
2022-08-19T02:14:34.834Z,23.86
2022-08-19T02:17:02.080Z,23.85
2022-08-19T02:19:29.676Z,23.57
2022-08-19T02:21:56.900Z,23.58
2022-08-19T02:26:51.748Z,23.70
2022-08-19T02:29:18.994Z,23.67
2022-08-19T02:31:47.709Z,23.80
2022-08-19T02:34:15.209Z,23.59
2022-08-19T02:36:42.725Z,23.28
2022-08-19T02:39:10.119Z,23.02
2022-08-19T02:41:37.555Z,22.82
2022-08-19T02:44:30.357Z,22.54
2022-08-19T02:46:54.983Z,22.49
2022-08-19T02:49:22.123Z,22.52
2022-08-19T02:51:49.522Z,22.58
2022-08-19T02:54:17.034Z,22.64
2022-08-19T02:56:45.169Z,22.71
2022-08-19T02:59:13.041Z,22.69
2022-08-19T03:01:43.072Z,22.58
2022-08-19T03:04:14.309Z,22.42
2022-08-19T03:06:44.702Z,22.36
2022-08-19T03:09:13.274Z,22.06
2022-08-19T03:11:40.952Z,21.97
2022-08-19T03:14:10.072Z,22.01
2022-08-19T03:16:48.557Z,21.87
2022-08-19T03:19:20.271Z,21.81
2022-08-19T03:21:47.839Z,22.03
2022-08-19T03:24:16.239Z,21.94
2022-08-19T03:26:47.878Z,21.63
2022-08-19T03:29:15.919Z,21.45
2022-08-19T03:31:58.487Z,21.46
2022-08-19T03:34:29.964Z,21.43
2022-08-19T03:36:58.703Z,21.50
2022-08-19T03:39:27.046Z,21.47
2022-08-19T03:42:32.424Z,21.47
2022-08-19T03:44:44.140Z,21.58
2022-08-19T03:47:11.495Z,21.69
2022-08-19T03:49:40.281Z,21.76
2022-08-19T03:52:07.789Z,21.89
2022-08-19T03:54:35.403Z,21.67
2022-08-19T03:57:03.508Z,21.77
2022-08-19T03:59:33.433Z,21.83
2022-08-19T04:02:06.233Z,21.80
2022-08-19T04:04:33.743Z,21.78
2022-08-19T04:07:02.385Z,21.73
2022-08-19T04:09:30.047Z,21.60
2022-08-19T04:11:58.682Z,21.60
2022-08-19T04:14:28.484Z,21.60
2022-08-19T04:16:55.679Z,21.48
2022-08-19T04:19:23.167Z,21.50
2022-08-19T04:21:53.347Z,21.57
2022-08-19T04:24:23.145Z,21.69
2022-08-19T04:26:51.914Z,21.84
2022-08-19T04:29:21.368Z,22.18
2022-08-19T04:31:49.153Z,22.31
2022-08-19T04:34:19.032Z,22.44
2022-08-19T04:36:46.722Z,22.59
2022-08-19T04:39:17.302Z,22.60
2022-08-19T04:41:47.250Z,22.49
2022-08-19T04:44:14.521Z,22.55
2022-08-19T04:46:50.873Z,22.62
2022-08-19T04:49:21.796Z,22.60
2022-08-19T04:51:49.681Z,22.70
2022-08-19T04:54:36.962Z,22.87
2022-08-19T04:57:08.246Z,22.92
2022-08-19T04:59:35.858Z,23.08
2022-08-19T05:02:03.730Z,23.05
2022-08-19T05:04:31.527Z,23.08
2022-08-19T05:07:00.829Z,23.07
2022-08-19T05:09:28.749Z,23.19
2022-08-19T05:12:18.427Z,23.35
2022-08-19T05:14:46.272Z,23.53
2022-08-19T05:17:32.097Z,23.47
2022-08-19T05:20:01.600Z,23.73
2022-08-19T05:22:28.842Z,23.88
2022-08-19T05:25:11.674Z,23.99
2022-08-19T05:27:43.041Z,24.14
2022-08-19T05:30:11.505Z,24.30
2022-08-19T05:32:39.176Z,24.41
2022-08-19T05:35:08.011Z,24.56
2022-08-19T05:37:35.211Z,24.62
2022-08-19T05:40:03.534Z,24.65
2022-08-19T05:42:31.213Z,24.81
2022-08-19T05:47:45.057Z,24.82
2022-08-19T05:50:15.002Z,25.03
2022-08-19T05:52:45.846Z,25.20
2022-08-19T05:55:17.469Z,25.40
2022-08-19T05:57:44.778Z,25.54
2022-08-19T06:00:14.689Z,25.75
2022-08-19T06:02:42.798Z,25.92
2022-08-19T06:05:11.340Z,26.06
2022-08-19T06:07:39.264Z,26.34
2022-08-19T06:10:09.609Z,26.31
2022-08-19T06:12:37.441Z,26.48
2022-08-19T06:15:09.903Z,26.49
2022-08-19T06:17:39.903Z,26.53
2022-08-19T06:20:09.648Z,26.31
2022-08-19T06:22:39.192Z,26.63
2022-08-19T06:25:08.006Z,26.87
2022-08-19T06:27:35.313Z,27.15
2022-08-19T06:30:03.382Z,27.48
2022-08-19T06:32:31.334Z,27.84
2022-08-19T06:35:00.137Z,28.01
2022-08-19T06:37:27.413Z,28.15
2022-08-19T06:39:55.055Z,27.95
2022-08-19T06:42:24.038Z,28.17
2022-08-19T06:44:53.294Z,27.94
2022-08-19T06:47:23.721Z,28.12
2022-08-19T06:50:01.404Z,28.00
2022-08-19T06:52:34.240Z,28.26
2022-08-19T06:55:01.750Z,28.37
2022-08-19T06:57:34.751Z,28.31
2022-08-19T07:00:02.154Z,28.70
2022-08-19T07:02:30.099Z,28.91
2022-08-19T07:04:57.666Z,29.06
2022-08-19T07:07:25.059Z,29.00
2022-08-19T07:10:00.869Z,29.14
2022-08-19T07:12:31.080Z,29.34
2022-08-19T07:14:59.062Z,29.37
2022-08-19T07:17:27.269Z,29.22
2022-08-19T07:19:54.892Z,29.50
2022-08-19T07:22:22.857Z,29.61
2022-08-19T07:24:53.249Z,29.72
2022-08-19T07:27:24.370Z,29.92
2022-08-19T07:29:57.144Z,30.01
2022-08-19T07:32:25.725Z,30.06
2022-08-19T07:34:53.080Z,30.34
2022-08-19T07:37:20.384Z,30.53
2022-08-19T07:39:47.818Z,30.48
2022-08-19T07:42:16.495Z,30.42
2022-08-19T07:44:50.558Z,30.44
2022-08-19T07:47:49.489Z,30.28
2022-08-19T07:50:11.150Z,30.56
2022-08-19T07:52:40.698Z,30.71
2022-08-19T07:55:11.407Z,30.75
2022-08-19T07:57:59.058Z,30.81
2022-08-19T08:00:26.593Z,30.85
2022-08-19T08:02:55.590Z,31.00
2022-08-19T08:05:24.373Z,31.19
2022-08-19T08:07:51.594Z,31.52
2022-08-19T08:10:21.020Z,31.39
2022-08-19T08:12:58.362Z,31.83
2022-08-19T08:15:42.206Z,31.82
2022-08-19T08:18:10.827Z,31.62
2022-08-19T08:20:38.600Z,31.61
2022-08-19T08:23:05.823Z,31.42
2022-08-19T08:25:34.410Z,31.90
2022-08-19T08:28:03.954Z,32.21
2022-08-19T08:30:32.751Z,32.25
2022-08-19T08:33:02.486Z,32.37
2022-08-19T08:35:30.017Z,32.65
2022-08-19T08:37:57.856Z,32.27
2022-08-19T08:40:30.389Z,32.62
2022-08-19T08:45:41.087Z,33.24
2022-08-19T08:48:22.356Z,33.26
2022-08-19T08:50:55.834Z,33.39
2022-08-19T08:53:29.637Z,33.94
2022-08-19T08:56:00.037Z,33.01
2022-08-19T08:58:33.129Z,32.91
2022-08-19T09:01:00.670Z,32.98
2022-08-19T09:03:31.598Z,33.08
2022-08-19T09:06:03.091Z,33.49
2022-08-19T09:08:44.224Z,33.54
2022-08-19T09:11:16.062Z,33.34
2022-08-19T09:14:40.617Z,33.12
2022-08-19T09:17:04.104Z,33.31
2022-08-19T09:19:33.809Z,33.52
2022-08-19T09:22:01.072Z,33.52
2022-08-19T09:24:31.240Z,33.59
2022-08-19T09:26:58.937Z,33.41
2022-08-19T09:29:26.228Z,33.37
2022-08-19T09:31:53.441Z,33.76
2022-08-19T09:34:22.182Z,33.70
2022-08-19T09:36:51.445Z,33.70
2022-08-19T09:39:19.305Z,33.65
2022-08-19T09:41:49.103Z,33.03
2022-08-19T09:44:16.799Z,32.29
2022-08-19T09:46:45.464Z,32.32
2022-08-19T09:49:13.469Z,32.11
2022-08-19T09:51:40.759Z,32.04
2022-08-19T09:54:11.518Z,32.43
2022-08-19T09:56:39.155Z,32.97
2022-08-19T09:59:09.626Z,33.01
2022-08-19T10:01:37.113Z,33.02
2022-08-19T10:04:14.694Z,33.35
2022-08-19T10:06:48.250Z,33.34
2022-08-19T10:09:33.794Z,33.49
2022-08-19T10:12:03.761Z,33.40
2022-08-19T10:14:31.666Z,33.07
2022-08-19T10:16:59.169Z,33.08
2022-08-19T10:19:26.616Z,32.95
2022-08-19T10:21:55.719Z,33.15
2022-08-19T10:24:29.598Z,33.39
2022-08-19T10:26:59.979Z,33.51
2022-08-19T10:29:32.979Z,33.69
2022-08-19T10:32:02.439Z,33.98
2022-08-19T10:34:31.560Z,34.41
2022-08-19T10:37:01.061Z,34.58
2022-08-19T10:39:32.875Z,34.41
2022-08-19T10:42:10.144Z,34.55
2022-08-19T10:44:37.625Z,34.61
2022-08-19T10:47:05.492Z,34.87
2022-08-19T10:49:50.260Z,34.84
2022-08-19T10:52:18.962Z,34.65
2022-08-19T10:54:49.307Z,34.61
2022-08-19T10:57:16.747Z,34.08
2022-08-19T10:59:43.971Z,34.50
2022-08-19T11:02:12.146Z,34.50
2022-08-19T11:04:40.549Z,34.28
2022-08-19T11:07:09.338Z,34.16
2022-08-19T11:09:40.914Z,34.23
2022-08-19T11:12:11.477Z,34.38
2022-08-19T11:14:38.847Z,34.39
2022-08-19T11:17:06.600Z,34.55
2022-08-19T11:19:34.753Z,34.74
2022-08-19T11:22:02.322Z,34.56
2022-08-19T11:24:31.442Z,34.48
2022-08-19T11:27:03.496Z,34.61
2022-08-19T11:29:32.991Z,34.63
2022-08-19T11:32:00.464Z,34.33
2022-08-19T11:34:28.313Z,34.39
2022-08-19T11:36:57.425Z,34.57
2022-08-19T11:39:26.115Z,34.70
2022-08-19T11:41:53.297Z,34.67
2022-08-19T11:44:20.681Z,34.94
2022-08-19T11:46:49.575Z,35.42
2022-08-19T11:49:19.090Z,35.52
2022-08-19T11:51:47.416Z,35.53
2022-08-19T11:54:15.941Z,35.23
2022-08-19T11:56:44.201Z,35.21
2022-08-19T11:59:14.647Z,35.33
2022-08-19T12:01:42.262Z,35.46
2022-08-19T12:04:11.765Z,34.97
2022-08-19T12:06:41.017Z,35.15
2022-08-19T12:09:11.032Z,35.08
2022-08-19T12:11:39.084Z,35.26
2022-08-19T12:14:07.082Z,35.60
2022-08-19T12:16:34.774Z,35.46
2022-08-19T12:19:05.683Z,34.91
2022-08-19T12:21:36.572Z,34.58
2022-08-19T12:24:05.459Z,34.89
2022-08-19T12:26:34.560Z,34.67
2022-08-19T12:29:04.185Z,34.68
2022-08-19T12:31:31.805Z,34.62
2022-08-19T12:33:59.642Z,34.76
2022-08-19T12:36:26.906Z,35.16
2022-08-19T12:38:55.801Z,35.53
2022-08-19T12:41:23.026Z,35.78
2022-08-19T12:43:50.779Z,35.94
2022-08-19T12:46:20.139Z,35.70
2022-08-19T12:48:51.126Z,35.90
2022-08-19T12:51:22.890Z,36.42
2022-08-19T12:53:50.308Z,36.63
2022-08-19T12:56:22.862Z,36.60
2022-08-19T12:58:52.812Z,36.73
2022-08-19T13:01:23.172Z,36.62
2022-08-19T13:03:51.388Z,36.54
2022-08-19T13:06:19.030Z,36.60
2022-08-19T13:08:47.673Z,36.52
2022-08-19T13:11:17.134Z,36.47
2022-08-19T13:13:48.865Z,36.16
2022-08-19T13:16:16.150Z,35.60
2022-08-19T13:18:46.235Z,35.46
2022-08-19T13:21:13.934Z,35.52
2022-08-19T13:23:42.331Z,35.66
2022-08-19T13:26:11.497Z,35.45
2022-08-19T13:28:40.740Z,35.61
2022-08-19T13:31:09.401Z,34.87
2022-08-19T13:33:36.669Z,34.72
2022-08-19T13:36:04.633Z,34.52
2022-08-19T13:38:31.918Z,34.49
2022-08-19T13:41:10.963Z,34.64
2022-08-19T13:43:41.156Z,34.94
2022-08-19T13:46:12.127Z,34.96
2022-08-19T13:48:39.518Z,35.00
2022-08-19T13:51:07.242Z,35.08
2022-08-19T13:53:34.459Z,34.96
2022-08-19T13:56:05.739Z,34.63
2022-08-19T13:58:35.240Z,34.19
2022-08-19T14:01:03.123Z,34.20
2022-08-19T14:03:32.635Z,34.15
2022-08-19T14:06:00.555Z,33.87
2022-08-19T14:08:27.857Z,33.98
2022-08-19T14:10:56.299Z,33.76
2022-08-19T14:13:24.596Z,33.62
2022-08-19T14:15:52.594Z,33.50
2022-08-19T14:18:20.212Z,33.29
2022-08-19T14:20:49.085Z,32.99
2022-08-19T14:23:16.395Z,32.77
2022-08-19T14:25:44.681Z,32.67
2022-08-19T14:28:12.180Z,32.61
2022-08-19T14:30:40.074Z,32.24
2022-08-19T14:33:08.150Z,32.10
2022-08-19T14:35:36.056Z,32.06
2022-08-19T14:38:06.456Z,31.96
2022-08-19T14:40:33.832Z,31.77
2022-08-19T14:43:04.579Z,31.97
2022-08-19T14:45:34.864Z,32.16
2022-08-19T14:48:04.988Z,31.95
2022-08-19T14:50:32.453Z,31.84
2022-08-19T14:53:00.888Z,31.66
2022-08-19T14:55:29.766Z,31.92
2022-08-19T14:57:57.329Z,31.82
2022-08-19T15:00:26.125Z,31.70
2022-08-19T15:02:53.907Z,31.42
2022-08-19T15:05:21.440Z,31.28
2022-08-19T15:07:48.839Z,31.41
2022-08-19T15:10:16.644Z,31.34
2022-08-19T15:12:48.599Z,31.26
2022-08-19T15:15:37.283Z,31.24
2022-08-19T15:18:04.700Z,31.06
2022-08-19T15:20:32.202Z,31.08
2022-08-19T15:22:59.463Z,31.02
2022-08-19T15:25:27.253Z,31.02
2022-08-19T15:27:56.666Z,30.83
2022-08-19T15:30:26.512Z,30.76
2022-08-19T15:32:54.112Z,30.87
2022-08-19T15:35:22.930Z,30.57
2022-08-19T15:37:51.246Z,30.62
2022-08-19T15:40:20.091Z,30.68
2022-08-19T15:42:47.905Z,30.82
2022-08-19T15:45:18.580Z,30.97
2022-08-19T15:47:45.830Z,31.15
2022-08-19T15:50:17.578Z,31.07
2022-08-19T15:52:50.295Z,31.34
2022-08-19T15:55:27.684Z,31.29
2022-08-19T15:58:01.806Z,31.21
2022-08-19T16:00:30.791Z,31.25
2022-08-19T16:02:58.045Z,31.24
2022-08-19T16:05:27.553Z,31.34
2022-08-19T16:07:55.239Z,31.45
2022-08-19T16:10:26.087Z,31.36
2022-08-19T16:12:54.249Z,31.37
2022-08-19T16:15:22.140Z,31.17
2022-08-19T16:17:57.116Z,31.11
2022-08-19T16:20:27.610Z,31.09
2022-08-19T16:22:55.446Z,31.21
2022-08-19T16:25:22.985Z,31.04
2022-08-19T16:28:06.443Z,30.79
2022-08-19T16:30:37.196Z,30.66
2022-08-19T16:33:06.768Z,30.75
2022-08-19T16:35:34.200Z,30.64
2022-08-19T16:38:04.679Z,30.69
2022-08-19T16:40:32.494Z,30.80
2022-08-19T16:43:00.457Z,30.79
2022-08-19T16:45:28.008Z,30.71
2022-08-19T16:47:55.939Z,30.79
2022-08-19T16:50:45.807Z,30.78
2022-08-19T16:53:12.953Z,30.67
2022-08-19T16:55:40.424Z,30.58
2022-08-19T16:58:07.679Z,30.61
2022-08-19T17:00:35.233Z,30.64
2022-08-19T17:03:06.677Z,30.63
2022-08-19T17:05:35.345Z,30.59
2022-08-19T17:08:03.271Z,30.52
2022-08-19T17:10:30.601Z,30.46
2022-08-19T17:12:58.038Z,30.45
2022-08-19T17:15:26.057Z,30.41
2022-08-19T17:17:53.459Z,30.34
2022-08-19T17:20:21.138Z,30.25
2022-08-19T17:22:50.365Z,30.20
2022-08-19T17:25:17.797Z,30.10
2022-08-19T17:27:44.936Z,29.94
2022-08-19T17:30:13.991Z,30.00
2022-08-19T17:32:41.276Z,29.92
2022-08-19T17:35:09.364Z,29.94
2022-08-19T17:37:38.083Z,30.10
2022-08-19T17:40:12.317Z,30.09
2022-08-19T17:42:43.213Z,30.20
2022-08-19T17:45:12.037Z,30.08
2022-08-19T17:47:41.817Z,30.12
2022-08-19T17:50:11.094Z,30.10
2022-08-19T17:52:38.901Z,29.96
2022-08-19T17:55:08.463Z,29.78
2022-08-19T17:57:36.543Z,29.66
2022-08-19T18:00:06.306Z,29.61
2022-08-19T18:02:44.950Z,29.55
2022-08-19T18:05:13.683Z,29.32
2022-08-19T18:07:41.516Z,29.33
2022-08-19T18:10:13.467Z,29.35
2022-08-19T18:12:40.738Z,29.26
2022-08-19T18:15:09.927Z,29.21
2022-08-19T18:17:37.215Z,29.11
2022-08-19T18:20:07.488Z,29.06
2022-08-19T18:22:39.364Z,28.97
2022-08-19T18:25:10.036Z,28.97
2022-08-19T18:27:39.377Z,28.86
2022-08-19T18:30:08.235Z,28.87
2022-08-19T18:32:37.791Z,28.73
2022-08-19T18:35:08.541Z,28.78
2022-08-19T18:37:35.947Z,28.65
2022-08-19T18:40:04.294Z,28.52
2022-08-19T18:42:32.166Z,28.53
2022-08-19T18:45:00.776Z,28.56
2022-08-19T18:47:28.017Z,28.50
2022-08-19T18:49:55.863Z,28.43
2022-08-19T18:52:23.232Z,28.41
2022-08-19T18:54:50.564Z,28.25
2022-08-19T18:57:18.278Z,28.20
2022-08-19T18:59:46.448Z,28.14
2022-08-19T19:02:17.371Z,28.00
2022-08-19T19:04:46.267Z,27.80
2022-08-19T19:07:13.497Z,27.92
2022-08-19T19:09:41.829Z,27.94
2022-08-19T19:12:11.840Z,27.98
2022-08-19T19:14:49.895Z,28.05
2022-08-19T19:17:19.630Z,28.17
2022-08-19T19:19:46.996Z,28.23
2022-08-19T19:22:17.788Z,28.14
2022-08-19T19:24:45.739Z,28.14
2022-08-19T19:27:15.086Z,27.98
2022-08-19T19:29:42.606Z,28.05
2022-08-19T19:32:20.304Z,27.98
2022-08-19T19:34:49.135Z,27.90
2022-08-19T19:37:16.989Z,27.78
2022-08-19T19:39:46.332Z,27.63
2022-08-19T19:42:20.434Z,27.58
2022-08-19T19:44:50.630Z,27.49
2022-08-19T19:47:19.349Z,27.51
2022-08-19T19:50:12.728Z,27.55
2022-08-19T19:52:36.251Z,27.66
2022-08-19T19:55:03.914Z,27.63
2022-08-19T19:57:31.194Z,27.58
2022-08-19T19:59:59.099Z,27.61
2022-08-19T20:02:26.407Z,27.41
2022-08-19T20:04:55.071Z,27.31
2022-08-19T20:07:22.605Z,27.39
2022-08-19T20:09:59.862Z,27.31
2022-08-19T20:12:28.255Z,26.95
2022-08-19T20:14:55.515Z,26.85
2022-08-19T20:17:22.850Z,26.56
2022-08-19T20:19:50.382Z,26.50
2022-08-19T20:22:19.034Z,26.62
2022-08-19T20:24:46.557Z,26.47
2022-08-19T20:27:14.482Z,26.09
2022-08-19T20:29:44.262Z,26.19
2022-08-19T20:32:12.706Z,26.39
2022-08-19T20:34:40.760Z,26.36
2022-08-19T20:37:08.248Z,26.28
2022-08-19T20:39:37.175Z,26.38
2022-08-19T20:42:05.334Z,26.30
2022-08-19T20:44:32.561Z,26.19
2022-08-19T20:47:03.501Z,26.14
2022-08-19T20:49:32.402Z,25.99
2022-08-19T20:51:59.852Z,25.92
2022-08-19T20:54:27.850Z,25.80
2022-08-19T20:56:57.417Z,25.67
2022-08-19T20:59:24.842Z,25.57
2022-08-19T21:01:53.316Z,25.55
2022-08-19T21:04:24.356Z,25.69
2022-08-19T21:06:54.500Z,25.79
2022-08-19T21:09:22.176Z,25.78
2022-08-19T21:11:50.214Z,25.85
2022-08-19T21:14:18.754Z,25.95
2022-08-19T21:16:46.485Z,25.94
2022-08-19T21:19:13.811Z,25.90
2022-08-19T21:21:41.056Z,25.98
2022-08-19T21:24:08.831Z,25.98
2022-08-19T21:26:36.115Z,25.96
2022-08-19T21:29:03.512Z,25.96
2022-08-19T21:31:32.722Z,25.83
2022-08-19T21:33:59.927Z,25.64
2022-08-19T21:36:27.261Z,25.83
2022-08-19T21:38:54.856Z,25.77
2022-08-19T21:41:22.420Z,25.63
2022-08-19T21:43:49.652Z,25.71
2022-08-19T21:46:17.309Z,25.67
2022-08-19T21:48:46.018Z,25.64
2022-08-19T21:51:13.651Z,25.61
2022-08-19T21:53:41.367Z,25.63
2022-08-19T21:56:10.881Z,25.72
2022-08-19T21:58:38.141Z,25.86
2022-08-19T22:01:06.533Z,25.87
2022-08-19T22:03:35.247Z,25.58
2022-08-19T22:06:05.293Z,25.22
2022-08-19T22:08:32.907Z,25.34
2022-08-19T22:11:00.090Z,25.15
2022-08-19T22:13:28.466Z,25.07
2022-08-19T22:15:55.943Z,25.02
2022-08-19T22:18:23.148Z,24.78
2022-08-19T22:20:50.602Z,24.46
2022-08-19T22:23:19.538Z,24.38
2022-08-19T22:25:47.293Z,24.21
2022-08-19T22:28:19.179Z,24.02
2022-08-19T22:30:56.060Z,23.91
2022-08-19T22:33:24.110Z,23.96
2022-08-19T22:35:52.888Z,23.97
2022-08-19T22:38:22.825Z,23.88
2022-08-19T22:40:51.623Z,23.95
2022-08-19T22:43:22.345Z,24.05
2022-08-19T22:45:51.364Z,23.89
2022-08-19T22:50:48.274Z,23.56
2022-08-19T22:53:15.787Z,23.34
2022-08-19T22:55:44.488Z,23.45
2022-08-19T22:58:11.784Z,23.71
2022-08-19T23:00:39.410Z,23.76
2022-08-19T23:03:06.879Z,23.82
2022-08-19T23:05:34.058Z,23.80
2022-08-19T23:08:05.726Z,23.81
2022-08-19T23:10:33.228Z,23.78
2022-08-19T23:13:01.937Z,23.62
2022-08-19T23:15:32.405Z,23.69
2022-08-19T23:18:02.526Z,23.60
2022-08-19T23:20:32.322Z,23.70
2022-08-19T23:23:01.961Z,23.73
2022-08-19T23:25:31.210Z,23.71
2022-08-19T23:27:59.200Z,23.63
2022-08-19T23:30:29.832Z,23.56
2022-08-19T23:33:00.018Z,23.43
2022-08-19T23:35:32.614Z,23.33
2022-08-19T23:38:00.051Z,23.28
2022-08-19T23:40:27.813Z,23.17
2022-08-19T23:42:55.551Z,23.10
2022-08-19T23:45:24.695Z,23.04
2022-08-19T23:47:54.064Z,23.12
2022-08-19T23:50:22.941Z,23.07
2022-08-19T23:52:52.986Z,22.98
2022-08-19T23:55:23.102Z,22.99
2022-08-19T23:57:51.164Z,23.07
